sensor_id;sensor_type;location;lat;lon;timestamp;P1;durP1;ratioP1;P2;durP2;ratioP2
8889;SDS011;4481;43.406;24.454;2022-09-20T00:01:30;1.20;;;1.10;;
8889;SDS011;4481;43.406;24.454;2022-09-20T00:03:58;1.40;;;1.30;;
8889;SDS011;4481;43.406;24.454;2022-09-20T00:06:26;2.73;;;1.37;;
8889;SDS011;4481;43.406;24.454;2022-09-20T00:08:53;1.70;;;1.60;;
8889;SDS011;4481;43.406;24.454;2022-09-20T00:11:21;1.60;;;1.50;;
8889;SDS011;4481;43.406;24.454;2022-09-20T00:13:49;1.53;;;1.43;;
8889;SDS011;4481;43.406;24.454;2022-09-20T00:16:18;1.33;;;1.23;;
8889;SDS011;4481;43.406;24.454;2022-09-20T00:18:47;1.60;;;1.50;;
8889;SDS011;4481;43.406;24.454;2022-09-20T00:21:14;1.60;;;1.50;;
8889;SDS011;4481;43.406;24.454;2022-09-20T00:23:41;1.87;;;1.67;;
8889;SDS011;4481;43.406;24.454;2022-09-20T00:26:07;1.80;;;1.70;;
8889;SDS011;4481;43.406;24.454;2022-09-20T00:28:33;2.07;;;1.97;;
8889;SDS011;4481;43.406;24.454;2022-09-20T00:31:00;1.80;;;1.60;;
8889;SDS011;4481;43.406;24.454;2022-09-20T00:33:26;2.00;;;1.90;;
8889;SDS011;4481;43.406;24.454;2022-09-20T00:36:13;2.60;;;2.37;;
8889;SDS011;4481;43.406;24.454;2022-09-20T00:38:39;2.20;;;2.00;;
8889;SDS011;4481;43.406;24.454;2022-09-20T00:41:05;2.43;;;2.23;;
8889;SDS011;4481;43.406;24.454;2022-09-20T00:43:36;3.97;;;2.50;;
8889;SDS011;4481;43.406;24.454;2022-09-20T00:46:03;2.53;;;2.33;;
8889;SDS011;4481;43.406;24.454;2022-09-20T00:48:31;3.33;;;2.80;;
8889;SDS011;4481;43.406;24.454;2022-09-20T00:50:59;2.77;;;2.27;;
8889;SDS011;4481;43.406;24.454;2022-09-20T00:53:33;2.77;;;2.57;;
8889;SDS011;4481;43.406;24.454;2022-09-20T00:56:04;2.63;;;2.43;;
8889;SDS011;4481;43.406;24.454;2022-09-20T00:58:35;2.50;;;2.30;;
8889;SDS011;4481;43.406;24.454;2022-09-20T01:01:05;2.40;;;2.20;;
8889;SDS011;4481;43.406;24.454;2022-09-20T01:03:32;2.60;;;2.40;;
8889;SDS011;4481;43.406;24.454;2022-09-20T01:06:02;3.90;;;2.83;;
8889;SDS011;4481;43.406;24.454;2022-09-20T01:08:31;2.67;;;2.47;;
8889;SDS011;4481;43.406;24.454;2022-09-20T01:11:00;2.77;;;2.57;;
8889;SDS011;4481;43.406;24.454;2022-09-20T01:13:27;3.00;;;2.70;;
8889;SDS011;4481;43.406;24.454;2022-09-20T01:15:53;2.57;;;2.37;;
8889;SDS011;4481;43.406;24.454;2022-09-20T01:18:23;3.13;;;2.70;;
8889;SDS011;4481;43.406;24.454;2022-09-20T01:20:50;3.60;;;2.13;;
8889;SDS011;4481;43.406;24.454;2022-09-20T01:23:29;2.97;;;2.77;;
8889;SDS011;4481;43.406;24.454;2022-09-20T01:26:17;2.73;;;2.53;;
8889;SDS011;4481;43.406;24.454;2022-09-20T01:29:08;3.20;;;2.90;;
8889;SDS011;4481;43.406;24.454;2022-09-20T01:31:42;2.97;;;2.70;;
8889;SDS011;4481;43.406;24.454;2022-09-20T01:34:12;2.67;;;2.47;;
8889;SDS011;4481;43.406;24.454;2022-09-20T01:36:42;3.10;;;2.57;;
8889;SDS011;4481;43.406;24.454;2022-09-20T01:39:16;3.13;;;2.93;;
8889;SDS011;4481;43.406;24.454;2022-09-20T01:41:50;2.87;;;2.67;;
8889;SDS011;4481;43.406;24.454;2022-09-20T01:44:24;2.90;;;2.70;;
8889;SDS011;4481;43.406;24.454;2022-09-20T01:46:59;3.07;;;2.60;;
8889;SDS011;4481;43.406;24.454;2022-09-20T01:49:32;3.20;;;2.90;;
8889;SDS011;4481;43.406;24.454;2022-09-20T01:52:24;3.40;;;2.87;;
8889;SDS011;4481;43.406;24.454;2022-09-20T01:55:22;3.10;;;2.80;;
8889;SDS011;4481;43.406;24.454;2022-09-20T01:58:20;3.87;;;3.47;;
8889;SDS011;4481;43.406;24.454;2022-09-20T02:01:17;3.30;;;3.00;;
8889;SDS011;4481;43.406;24.454;2022-09-20T02:04:06;2.73;;;2.53;;
8889;SDS011;4481;43.406;24.454;2022-09-20T02:06:51;7.00;;;2.33;;
8889;SDS011;4481;43.406;24.454;2022-09-20T02:09:36;2.80;;;2.60;;
8889;SDS011;4481;43.406;24.454;2022-09-20T02:15:11;3.30;;;3.00;;
8889;SDS011;4481;43.406;24.454;2022-09-20T02:17:52;3.03;;;2.83;;
8889;SDS011;4481;43.406;24.454;2022-09-20T02:20:31;2.40;;;2.20;;
8889;SDS011;4481;43.406;24.454;2022-09-20T02:23:05;2.83;;;2.63;;
8889;SDS011;4481;43.406;24.454;2022-09-20T02:28:44;2.67;;;2.47;;
8889;SDS011;4481;43.406;24.454;2022-09-20T02:31:32;2.90;;;2.60;;
8889;SDS011;4481;43.406;24.454;2022-09-20T02:34:18;4.90;;;2.47;;
8889;SDS011;4481;43.406;24.454;2022-09-20T02:37:19;3.27;;;2.97;;
8889;SDS011;4481;43.406;24.454;2022-09-20T02:40:05;2.83;;;2.60;;
8889;SDS011;4481;43.406;24.454;2022-09-20T02:42:43;2.73;;;2.53;;
8889;SDS011;4481;43.406;24.454;2022-09-20T02:45:15;2.70;;;2.50;;
8889;SDS011;4481;43.406;24.454;2022-09-20T02:47:48;2.60;;;2.40;;
8889;SDS011;4481;43.406;24.454;2022-09-20T02:50:19;3.20;;;2.83;;
8889;SDS011;4481;43.406;24.454;2022-09-20T02:52:57;3.40;;;2.77;;
8889;SDS011;4481;43.406;24.454;2022-09-20T02:55:34;2.87;;;2.40;;
8889;SDS011;4481;43.406;24.454;2022-09-20T02:58:10;2.80;;;2.60;;
8889;SDS011;4481;43.406;24.454;2022-09-20T03:00:50;3.17;;;2.73;;
8889;SDS011;4481;43.406;24.454;2022-09-20T03:03:22;2.90;;;2.63;;
8889;SDS011;4481;43.406;24.454;2022-09-20T03:06:04;3.10;;;2.50;;
8889;SDS011;4481;43.406;24.454;2022-09-20T03:08:37;3.53;;;3.17;;
8889;SDS011;4481;43.406;24.454;2022-09-20T03:11:16;2.97;;;2.73;;
8889;SDS011;4481;43.406;24.454;2022-09-20T03:13:55;2.70;;;2.50;;
8889;SDS011;4481;43.406;24.454;2022-09-20T03:16:33;3.77;;;2.97;;
8889;SDS011;4481;43.406;24.454;2022-09-20T03:19:14;3.20;;;2.90;;
8889;SDS011;4481;43.406;24.454;2022-09-20T03:21:50;2.83;;;2.60;;
8889;SDS011;4481;43.406;24.454;2022-09-20T03:24:27;3.13;;;2.80;;
8889;SDS011;4481;43.406;24.454;2022-09-20T03:27:08;2.90;;;2.50;;
8889;SDS011;4481;43.406;24.454;2022-09-20T03:29:45;3.07;;;2.87;;
8889;SDS011;4481;43.406;24.454;2022-09-20T03:32:27;3.17;;;2.87;;
8889;SDS011;4481;43.406;24.454;2022-09-20T03:35:15;2.87;;;2.53;;
8889;SDS011;4481;43.406;24.454;2022-09-20T03:38:01;3.17;;;2.87;;
8889;SDS011;4481;43.406;24.454;2022-09-20T03:43:24;3.00;;;2.67;;
8889;SDS011;4481;43.406;24.454;2022-09-20T03:46:01;2.80;;;2.60;;
8889;SDS011;4481;43.406;24.454;2022-09-20T03:48:46;3.00;;;2.67;;
8889;SDS011;4481;43.406;24.454;2022-09-20T03:51:26;2.90;;;2.60;;
8889;SDS011;4481;43.406;24.454;2022-09-20T03:54:00;3.10;;;2.60;;
8889;SDS011;4481;43.406;24.454;2022-09-20T03:56:58;3.17;;;2.90;;
8889;SDS011;4481;43.406;24.454;2022-09-20T03:59:52;3.00;;;2.70;;
8889;SDS011;4481;43.406;24.454;2022-09-20T04:02:35;3.20;;;2.90;;
8889;SDS011;4481;43.406;24.454;2022-09-20T04:05:19;2.73;;;2.53;;
8889;SDS011;4481;43.406;24.454;2022-09-20T04:07:53;2.90;;;2.70;;
8889;SDS011;4481;43.406;24.454;2022-09-20T04:10:33;2.70;;;2.50;;
8889;SDS011;4481;43.406;24.454;2022-09-20T04:13:14;3.00;;;2.70;;
8889;SDS011;4481;43.406;24.454;2022-09-20T04:15:50;2.70;;;2.17;;
8889;SDS011;4481;43.406;24.454;2022-09-20T04:18:27;3.00;;;2.53;;
8889;SDS011;4481;43.406;24.454;2022-09-20T04:21:02;2.23;;;2.03;;
8889;SDS011;4481;43.406;24.454;2022-09-20T04:23:35;2.87;;;2.47;;
8889;SDS011;4481;43.406;24.454;2022-09-20T04:26:11;3.23;;;2.90;;
8889;SDS011;4481;43.406;24.454;2022-09-20T04:28:42;3.30;;;2.50;;
8889;SDS011;4481;43.406;24.454;2022-09-20T04:31:15;2.57;;;2.30;;
8889;SDS011;4481;43.406;24.454;2022-09-20T04:33:49;2.93;;;2.70;;
8889;SDS011;4481;43.406;24.454;2022-09-20T04:36:22;3.53;;;2.87;;
8889;SDS011;4481;43.406;24.454;2022-09-20T04:39:13;3.10;;;2.80;;
8889;SDS011;4481;43.406;24.454;2022-09-20T04:48:08;3.33;;;2.07;;
8889;SDS011;4481;43.406;24.454;2022-09-20T04:53:59;2.23;;;2.03;;
8889;SDS011;4481;43.406;24.454;2022-09-20T04:57:05;2.40;;;2.00;;
8889;SDS011;4481;43.406;24.454;2022-09-20T04:59:56;4.17;;;2.20;;
8889;SDS011;4481;43.406;24.454;2022-09-20T05:02:47;2.20;;;2.00;;
8889;SDS011;4481;43.406;24.454;2022-09-20T05:05:50;5.30;;;1.93;;
8889;SDS011;4481;43.406;24.454;2022-09-20T05:08:43;3.17;;;2.10;;
8889;SDS011;4481;43.406;24.454;2022-09-20T05:11:42;2.43;;;2.00;;
8889;SDS011;4481;43.406;24.454;2022-09-20T05:17:22;1.90;;;1.73;;
8889;SDS011;4481;43.406;24.454;2022-09-20T05:20:12;3.03;;;2.00;;
8889;SDS011;4481;43.406;24.454;2022-09-20T05:23:02;1.63;;;1.53;;
8889;SDS011;4481;43.406;24.454;2022-09-20T05:26:01;2.17;;;1.60;;
8889;SDS011;4481;43.406;24.454;2022-09-20T05:28:35;2.43;;;2.10;;
8889;SDS011;4481;43.406;24.454;2022-09-20T05:31:11;4.90;;;2.20;;
8889;SDS011;4481;43.406;24.454;2022-09-20T05:33:47;2.00;;;1.80;;
8889;SDS011;4481;43.406;24.454;2022-09-20T05:36:22;1.70;;;1.60;;
8889;SDS011;4481;43.406;24.454;2022-09-20T05:38:55;2.57;;;1.50;;
8889;SDS011;4481;43.406;24.454;2022-09-20T05:41:29;1.70;;;1.50;;
8889;SDS011;4481;43.406;24.454;2022-09-20T05:44:05;3.50;;;2.30;;
8889;SDS011;4481;43.406;24.454;2022-09-20T05:46:43;3.63;;;2.70;;
8889;SDS011;4481;43.406;24.454;2022-09-20T05:49:25;5.90;;;2.37;;
8889;SDS011;4481;43.406;24.454;2022-09-20T05:52:07;2.17;;;1.60;;
8889;SDS011;4481;43.406;24.454;2022-09-20T05:55:00;1.50;;;1.40;;
8889;SDS011;4481;43.406;24.454;2022-09-20T05:57:51;1.77;;;1.40;;
8889;SDS011;4481;43.406;24.454;2022-09-20T06:00:29;2.53;;;1.30;;
8889;SDS011;4481;43.406;24.454;2022-09-20T06:03:04;1.50;;;1.40;;
8889;SDS011;4481;43.406;24.454;2022-09-20T06:05:45;1.80;;;1.70;;
8889;SDS011;4481;43.406;24.454;2022-09-20T06:08:28;2.00;;;1.80;;
8889;SDS011;4481;43.406;24.454;2022-09-20T06:11:39;1.30;;;1.20;;
8889;SDS011;4481;43.406;24.454;2022-09-20T06:14:20;1.47;;;1.30;;
8889;SDS011;4481;43.406;24.454;2022-09-20T06:17:01;1.40;;;1.30;;
8889;SDS011;4481;43.406;24.454;2022-09-20T06:19:38;2.27;;;1.57;;
8889;SDS011;4481;43.406;24.454;2022-09-20T06:22:16;2.20;;;1.80;;
8889;SDS011;4481;43.406;24.454;2022-09-20T06:24:53;2.40;;;1.43;;
8889;SDS011;4481;43.406;24.454;2022-09-20T06:27:29;1.40;;;1.30;;
8889;SDS011;4481;43.406;24.454;2022-09-20T06:30:01;1.40;;;1.30;;
8889;SDS011;4481;43.406;24.454;2022-09-20T06:32:30;2.33;;;1.13;;
8889;SDS011;4481;43.406;24.454;2022-09-20T06:34:57;1.40;;;1.30;;
8889;SDS011;4481;43.406;24.454;2022-09-20T06:37:33;1.93;;;1.33;;
8889;SDS011;4481;43.406;24.454;2022-09-20T06:40:29;5.43;;;1.80;;
8889;SDS011;4481;43.406;24.454;2022-09-20T06:43:18;1.50;;;1.40;;
8889;SDS011;4481;43.406;24.454;2022-09-20T06:45:45;2.23;;;1.40;;
8889;SDS011;4481;43.406;24.454;2022-09-20T06:48:12;1.70;;;1.53;;
8889;SDS011;4481;43.406;24.454;2022-09-20T06:50:39;1.30;;;1.20;;
8889;SDS011;4481;43.406;24.454;2022-09-20T06:53:08;2.10;;;1.33;;
8889;SDS011;4481;43.406;24.454;2022-09-20T06:55:39;1.80;;;1.23;;
8889;SDS011;4481;43.406;24.454;2022-09-20T06:58:09;1.60;;;1.50;;
8889;SDS011;4481;43.406;24.454;2022-09-20T07:00:35;3.47;;;1.50;;
8889;SDS011;4481;43.406;24.454;2022-09-20T07:03:03;1.63;;;1.20;;
8889;SDS011;4481;43.406;24.454;2022-09-20T07:05:30;1.50;;;1.40;;
8889;SDS011;4481;43.406;24.454;2022-09-20T07:07:56;2.20;;;2.00;;
8889;SDS011;4481;43.406;24.454;2022-09-20T07:10:25;3.30;;;1.30;;
8889;SDS011;4481;43.406;24.454;2022-09-20T07:12:54;1.20;;;1.10;;
8889;SDS011;4481;43.406;24.454;2022-09-20T07:15:21;2.07;;;1.50;;
8889;SDS011;4481;43.406;24.454;2022-09-20T07:17:48;1.27;;;1.17;;
8889;SDS011;4481;43.406;24.454;2022-09-20T07:20:15;1.17;;;0.97;;
8889;SDS011;4481;43.406;24.454;2022-09-20T07:22:41;1.57;;;1.30;;
8889;SDS011;4481;43.406;24.454;2022-09-20T07:25:08;1.70;;;1.10;;
8889;SDS011;4481;43.406;24.454;2022-09-20T07:27:35;1.53;;;1.03;;
8889;SDS011;4481;43.406;24.454;2022-09-20T07:30:01;5.90;;;1.60;;
8889;SDS011;4481;43.406;24.454;2022-09-20T07:32:27;1.20;;;1.10;;
8889;SDS011;4481;43.406;24.454;2022-09-20T07:34:56;1.13;;;1.03;;
8889;SDS011;4481;43.406;24.454;2022-09-20T07:37:22;1.73;;;1.60;;
8889;SDS011;4481;43.406;24.454;2022-09-20T07:39:48;1.50;;;1.40;;
8889;SDS011;4481;43.406;24.454;2022-09-20T07:42:14;1.53;;;1.30;;
8889;SDS011;4481;43.406;24.454;2022-09-20T07:44:41;2.83;;;1.33;;
8889;SDS011;4481;43.406;24.454;2022-09-20T07:47:08;1.27;;;1.17;;
8889;SDS011;4481;43.406;24.454;2022-09-20T07:49:35;1.33;;;1.23;;
8889;SDS011;4481;43.406;24.454;2022-09-20T07:52:02;2.40;;;1.20;;
8889;SDS011;4481;43.406;24.454;2022-09-20T07:54:28;2.13;;;1.53;;
8889;SDS011;4481;43.406;24.454;2022-09-20T07:56:54;2.93;;;2.00;;
8889;SDS011;4481;43.406;24.454;2022-09-20T07:59:21;1.57;;;1.40;;
8889;SDS011;4481;43.406;24.454;2022-09-20T08:01:49;1.07;;;0.97;;
8889;SDS011;4481;43.406;24.454;2022-09-20T08:04:15;3.33;;;1.47;;
8889;SDS011;4481;43.406;24.454;2022-09-20T08:06:42;1.20;;;1.10;;
8889;SDS011;4481;43.406;24.454;2022-09-20T08:09:09;1.20;;;1.10;;
8889;SDS011;4481;43.406;24.454;2022-09-20T08:11:37;1.10;;;1.00;;
8889;SDS011;4481;43.406;24.454;2022-09-20T08:14:04;1.20;;;1.00;;
8889;SDS011;4481;43.406;24.454;2022-09-20T08:16:30;2.40;;;1.40;;
8889;SDS011;4481;43.406;24.454;2022-09-20T08:18:58;1.30;;;1.20;;
8889;SDS011;4481;43.406;24.454;2022-09-20T08:21:26;1.63;;;1.20;;
8889;SDS011;4481;43.406;24.454;2022-09-20T08:23:55;1.20;;;1.10;;
8889;SDS011;4481;43.406;24.454;2022-09-20T08:26:22;1.20;;;1.10;;
8889;SDS011;4481;43.406;24.454;2022-09-20T08:28:50;1.17;;;1.00;;
8889;SDS011;4481;43.406;24.454;2022-09-20T08:31:17;1.20;;;1.10;;
8889;SDS011;4481;43.406;24.454;2022-09-20T08:33:45;1.30;;;1.20;;
8889;SDS011;4481;43.406;24.454;2022-09-20T08:36:15;1.47;;;1.17;;
8889;SDS011;4481;43.406;24.454;2022-09-20T08:38:42;1.33;;;1.17;;
8889;SDS011;4481;43.406;24.454;2022-09-20T08:41:10;3.33;;;1.40;;
8889;SDS011;4481;43.406;24.454;2022-09-20T08:43:40;1.60;;;1.50;;
8889;SDS011;4481;43.406;24.454;2022-09-20T08:46:12;2.57;;;1.20;;
8889;SDS011;4481;43.406;24.454;2022-09-20T08:48:41;1.10;;;1.00;;
8889;SDS011;4481;43.406;24.454;2022-09-20T08:51:09;4.53;;;1.10;;
8889;SDS011;4481;43.406;24.454;2022-09-20T08:53:41;1.20;;;1.10;;
8889;SDS011;4481;43.406;24.454;2022-09-20T08:56:11;1.93;;;1.40;;
8889;SDS011;4481;43.406;24.454;2022-09-20T08:58:37;3.57;;;0.93;;
8889;SDS011;4481;43.406;24.454;2022-09-20T09:01:04;1.30;;;1.20;;
8889;SDS011;4481;43.406;24.454;2022-09-20T09:03:30;1.20;;;1.10;;
8889;SDS011;4481;43.406;24.454;2022-09-20T09:05:57;1.23;;;1.10;;
8889;SDS011;4481;43.406;24.454;2022-09-20T09:08:26;1.07;;;0.97;;
8889;SDS011;4481;43.406;24.454;2022-09-20T09:10:56;3.10;;;1.13;;
8889;SDS011;4481;43.406;24.454;2022-09-20T09:13:33;1.20;;;1.10;;
8889;SDS011;4481;43.406;24.454;2022-09-20T09:16:05;1.40;;;1.30;;
8889;SDS011;4481;43.406;24.454;2022-09-20T09:18:38;1.27;;;0.90;;
8889;SDS011;4481;43.406;24.454;2022-09-20T09:21:07;1.60;;;1.10;;
8889;SDS011;4481;43.406;24.454;2022-09-20T09:23:44;1.43;;;1.30;;
8889;SDS011;4481;43.406;24.454;2022-09-20T09:26:17;1.20;;;1.10;;
8889;SDS011;4481;43.406;24.454;2022-09-20T09:28:45;0.90;;;0.90;;
8889;SDS011;4481;43.406;24.454;2022-09-20T09:31:18;2.87;;;1.00;;
8889;SDS011;4481;43.406;24.454;2022-09-20T09:33:49;1.67;;;1.00;;
8889;SDS011;4481;43.406;24.454;2022-09-20T09:36:19;1.10;;;1.00;;
8889;SDS011;4481;43.406;24.454;2022-09-20T09:38:47;2.50;;;1.10;;
8889;SDS011;4481;43.406;24.454;2022-09-20T09:41:21;3.17;;;1.20;;
8889;SDS011;4481;43.406;24.454;2022-09-20T09:43:56;1.00;;;1.00;;
8889;SDS011;4481;43.406;24.454;2022-09-20T09:46:24;1.20;;;1.03;;
8889;SDS011;4481;43.406;24.454;2022-09-20T09:49:03;1.73;;;1.37;;
8889;SDS011;4481;43.406;24.454;2022-09-20T09:51:32;2.53;;;1.20;;
8889;SDS011;4481;43.406;24.454;2022-09-20T09:53:58;1.13;;;1.03;;
8889;SDS011;4481;43.406;24.454;2022-09-20T09:56:36;1.13;;;1.03;;
8889;SDS011;4481;43.406;24.454;2022-09-20T09:59:22;3.57;;;1.00;;
8889;SDS011;4481;43.406;24.454;2022-09-20T10:02:01;1.47;;;1.10;;
8889;SDS011;4481;43.406;24.454;2022-09-20T10:04:38;1.00;;;0.90;;
8889;SDS011;4481;43.406;24.454;2022-09-20T10:07:12;1.67;;;1.20;;
8889;SDS011;4481;43.406;24.454;2022-09-20T10:09:47;5.53;;;1.20;;
8889;SDS011;4481;43.406;24.454;2022-09-20T10:12:34;1.20;;;1.10;;
8889;SDS011;4481;43.406;24.454;2022-09-20T10:18:08;1.83;;;1.00;;
8889;SDS011;4481;43.406;24.454;2022-09-20T10:20:49;1.43;;;1.33;;
8889;SDS011;4481;43.406;24.454;2022-09-20T10:23:26;1.77;;;1.20;;
8889;SDS011;4481;43.406;24.454;2022-09-20T10:26:06;1.40;;;1.03;;
8889;SDS011;4481;43.406;24.454;2022-09-20T10:28:43;1.07;;;0.97;;
8889;SDS011;4481;43.406;24.454;2022-09-20T10:31:19;1.30;;;1.00;;
8889;SDS011;4481;43.406;24.454;2022-09-20T10:34:11;2.40;;;1.10;;
8889;SDS011;4481;43.406;24.454;2022-09-20T10:36:48;1.50;;;1.10;;
8889;SDS011;4481;43.406;24.454;2022-09-20T10:39:17;1.53;;;1.30;;
8889;SDS011;4481;43.406;24.454;2022-09-20T10:41:51;2.83;;;1.30;;
8889;SDS011;4481;43.406;24.454;2022-09-20T10:44:48;1.30;;;1.00;;
8889;SDS011;4481;43.406;24.454;2022-09-20T10:47:25;1.20;;;1.10;;
8889;SDS011;4481;43.406;24.454;2022-09-20T10:49:59;3.87;;;1.47;;
8889;SDS011;4481;43.406;24.454;2022-09-20T10:52:39;2.37;;;1.40;;
8889;SDS011;4481;43.406;24.454;2022-09-20T10:55:25;1.60;;;1.20;;
8889;SDS011;4481;43.406;24.454;2022-09-20T10:58:01;1.30;;;1.00;;
8889;SDS011;4481;43.406;24.454;2022-09-20T11:00:53;1.33;;;1.10;;
8889;SDS011;4481;43.406;24.454;2022-09-20T11:03:30;1.00;;;0.90;;
8889;SDS011;4481;43.406;24.454;2022-09-20T11:06:10;1.30;;;0.97;;
8889;SDS011;4481;43.406;24.454;2022-09-20T11:08:42;1.00;;;0.90;;
8889;SDS011;4481;43.406;24.454;2022-09-20T11:11:15;1.53;;;1.10;;
8889;SDS011;4481;43.406;24.454;2022-09-20T11:13:46;2.20;;;0.90;;
8889;SDS011;4481;43.406;24.454;2022-09-20T11:16:30;1.00;;;0.90;;
8889;SDS011;4481;43.406;24.454;2022-09-20T11:19:03;2.20;;;0.80;;
8889;SDS011;4481;43.406;24.454;2022-09-20T11:21:41;1.00;;;1.00;;
8889;SDS011;4481;43.406;24.454;2022-09-20T11:24:13;1.17;;;0.90;;
8889;SDS011;4481;43.406;24.454;2022-09-20T11:26:52;0.77;;;0.77;;
8889;SDS011;4481;43.406;24.454;2022-09-20T11:29:23;0.80;;;0.80;;
8889;SDS011;4481;43.406;24.454;2022-09-20T11:31:55;1.13;;;0.80;;
8889;SDS011;4481;43.406;24.454;2022-09-20T11:34:27;2.83;;;0.87;;
8889;SDS011;4481;43.406;24.454;2022-09-20T11:36:56;0.80;;;0.80;;
8889;SDS011;4481;43.406;24.454;2022-09-20T11:39:26;2.50;;;1.00;;
8889;SDS011;4481;43.406;24.454;2022-09-20T11:41:57;2.57;;;0.90;;
8889;SDS011;4481;43.406;24.454;2022-09-20T11:44:26;1.27;;;0.83;;
8889;SDS011;4481;43.406;24.454;2022-09-20T11:46:54;1.27;;;1.10;;
8889;SDS011;4481;43.406;24.454;2022-09-20T11:49:27;1.10;;;1.00;;
8889;SDS011;4481;43.406;24.454;2022-09-20T11:55:02;1.50;;;1.10;;
8889;SDS011;4481;43.406;24.454;2022-09-20T11:57:44;1.10;;;1.00;;
8889;SDS011;4481;43.406;24.454;2022-09-20T12:00:27;2.10;;;1.10;;
8889;SDS011;4481;43.406;24.454;2022-09-20T12:02:55;3.43;;;1.00;;
8889;SDS011;4481;43.406;24.454;2022-09-20T12:05:23;1.63;;;1.10;;
8889;SDS011;4481;43.406;24.454;2022-09-20T12:07:54;1.20;;;0.90;;
8889;SDS011;4481;43.406;24.454;2022-09-20T12:10:24;1.10;;;1.00;;
8889;SDS011;4481;43.406;24.454;2022-09-20T12:12:54;1.73;;;1.17;;
8889;SDS011;4481;43.406;24.454;2022-09-20T12:15:22;1.23;;;1.13;;
8889;SDS011;4481;43.406;24.454;2022-09-20T12:18:07;1.10;;;1.00;;
8889;SDS011;4481;43.406;24.454;2022-09-20T12:20:56;1.63;;;1.10;;
8889;SDS011;4481;43.406;24.454;2022-09-20T12:23:46;1.60;;;1.00;;
8889;SDS011;4481;43.406;24.454;2022-09-20T12:26:36;1.30;;;1.10;;
8889;SDS011;4481;43.406;24.454;2022-09-20T12:29:49;1.20;;;1.10;;
8889;SDS011;4481;43.406;24.454;2022-09-20T12:32:28;1.33;;;0.90;;
8889;SDS011;4481;43.406;24.454;2022-09-20T12:34:57;1.07;;;0.90;;
8889;SDS011;4481;43.406;24.454;2022-09-20T12:37:23;1.10;;;0.90;;
8889;SDS011;4481;43.406;24.454;2022-09-20T12:39:51;1.50;;;1.10;;
8889;SDS011;4481;43.406;24.454;2022-09-20T12:42:25;2.80;;;1.10;;
8889;SDS011;4481;43.406;24.454;2022-09-20T12:44:57;0.93;;;0.93;;
8889;SDS011;4481;43.406;24.454;2022-09-20T12:47:26;1.33;;;1.20;;
8889;SDS011;4481;43.406;24.454;2022-09-20T12:49:55;5.33;;;1.10;;
8889;SDS011;4481;43.406;24.454;2022-09-20T12:52:51;0.90;;;0.90;;
8889;SDS011;4481;43.406;24.454;2022-09-20T12:58:17;3.07;;;1.00;;
8889;SDS011;4481;43.406;24.454;2022-09-20T13:00:47;2.33;;;1.03;;
8889;SDS011;4481;43.406;24.454;2022-09-20T13:03:23;0.97;;;0.93;;
8889;SDS011;4481;43.406;24.454;2022-09-20T13:08:52;5.43;;;1.10;;
8889;SDS011;4481;43.406;24.454;2022-09-20T13:11:22;4.70;;;1.00;;
8889;SDS011;4481;43.406;24.454;2022-09-20T13:13:54;0.80;;;0.80;;
8889;SDS011;4481;43.406;24.454;2022-09-20T13:16:23;1.27;;;0.97;;
8889;SDS011;4481;43.406;24.454;2022-09-20T13:18:56;1.40;;;1.00;;
8889;SDS011;4481;43.406;24.454;2022-09-20T13:21:29;1.17;;;1.07;;
8889;SDS011;4481;43.406;24.454;2022-09-20T13:23:57;1.20;;;1.10;;
8889;SDS011;4481;43.406;24.454;2022-09-20T13:26:24;2.27;;;1.00;;
8889;SDS011;4481;43.406;24.454;2022-09-20T13:28:55;1.10;;;1.00;;
8889;SDS011;4481;43.406;24.454;2022-09-20T13:31:28;1.20;;;0.90;;
8889;SDS011;4481;43.406;24.454;2022-09-20T13:34:11;2.50;;;1.00;;
8889;SDS011;4481;43.406;24.454;2022-09-20T13:36:38;1.57;;;0.90;;
8889;SDS011;4481;43.406;24.454;2022-09-20T13:39:05;1.07;;;0.97;;
8889;SDS011;4481;43.406;24.454;2022-09-20T13:41:32;1.50;;;1.17;;
8889;SDS011;4481;43.406;24.454;2022-09-20T13:43:59;7.87;;;1.47;;
8889;SDS011;4481;43.406;24.454;2022-09-20T13:46:27;1.40;;;1.23;;
8889;SDS011;4481;43.406;24.454;2022-09-20T13:48:57;2.13;;;1.30;;
8889;SDS011;4481;43.406;24.454;2022-09-20T13:51:34;1.20;;;1.10;;
8889;SDS011;4481;43.406;24.454;2022-09-20T13:56:43;4.30;;;2.10;;
8889;SDS011;4481;43.406;24.454;2022-09-20T13:59:09;1.30;;;1.20;;
8889;SDS011;4481;43.406;24.454;2022-09-20T14:01:43;1.40;;;1.10;;
8889;SDS011;4481;43.406;24.454;2022-09-20T14:04:14;1.30;;;1.10;;
8889;SDS011;4481;43.406;24.454;2022-09-20T14:06:43;3.57;;;1.00;;
8889;SDS011;4481;43.406;24.454;2022-09-20T14:09:15;3.10;;;1.20;;
8889;SDS011;4481;43.406;24.454;2022-09-20T14:11:45;1.30;;;1.00;;
8889;SDS011;4481;43.406;24.454;2022-09-20T14:14:12;1.07;;;0.97;;
8889;SDS011;4481;43.406;24.454;2022-09-20T14:16:39;1.10;;;1.00;;
8889;SDS011;4481;43.406;24.454;2022-09-20T14:19:10;2.60;;;1.40;;
8889;SDS011;4481;43.406;24.454;2022-09-20T14:21:40;2.33;;;1.20;;
8889;SDS011;4481;43.406;24.454;2022-09-20T14:24:21;2.17;;;1.00;;
8889;SDS011;4481;43.406;24.454;2022-09-20T14:27:04;1.10;;;1.00;;
8889;SDS011;4481;43.406;24.454;2022-09-20T14:29:40;3.37;;;1.17;;
8889;SDS011;4481;43.406;24.454;2022-09-20T14:32:17;1.07;;;1.03;;
8889;SDS011;4481;43.406;24.454;2022-09-20T14:34:52;2.10;;;1.00;;
8889;SDS011;4481;43.406;24.454;2022-09-20T14:37:25;2.47;;;1.20;;
8889;SDS011;4481;43.406;24.454;2022-09-20T14:39:55;1.30;;;1.20;;
8889;SDS011;4481;43.406;24.454;2022-09-20T14:42:25;3.23;;;1.00;;
8889;SDS011;4481;43.406;24.454;2022-09-20T14:44:55;1.27;;;1.00;;
8889;SDS011;4481;43.406;24.454;2022-09-20T14:47:24;1.73;;;1.03;;
8889;SDS011;4481;43.406;24.454;2022-09-20T14:49:51;1.67;;;1.10;;
8889;SDS011;4481;43.406;24.454;2022-09-20T14:52:25;1.27;;;1.10;;
8889;SDS011;4481;43.406;24.454;2022-09-20T14:55:15;1.10;;;1.00;;
8889;SDS011;4481;43.406;24.454;2022-09-20T14:57:44;1.20;;;1.10;;
8889;SDS011;4481;43.406;24.454;2022-09-20T15:00:12;1.33;;;1.20;;
8889;SDS011;4481;43.406;24.454;2022-09-20T15:02:40;1.60;;;1.40;;
8889;SDS011;4481;43.406;24.454;2022-09-20T15:05:14;0.97;;;0.97;;
8889;SDS011;4481;43.406;24.454;2022-09-20T15:07:43;2.73;;;0.97;;
8889;SDS011;4481;43.406;24.454;2022-09-20T15:10:11;1.20;;;1.10;;
8889;SDS011;4481;43.406;24.454;2022-09-20T15:12:37;1.50;;;1.40;;
8889;SDS011;4481;43.406;24.454;2022-09-20T15:15:04;2.33;;;2.00;;
8889;SDS011;4481;43.406;24.454;2022-09-20T15:17:30;4.97;;;3.60;;
8889;SDS011;4481;43.406;24.454;2022-09-20T15:19:57;5.50;;;2.60;;
8889;SDS011;4481;43.406;24.454;2022-09-20T15:22:23;2.63;;;1.80;;
8889;SDS011;4481;43.406;24.454;2022-09-20T15:24:50;2.77;;;1.63;;
8889;SDS011;4481;43.406;24.454;2022-09-20T15:27:17;1.97;;;1.70;;
8889;SDS011;4481;43.406;24.454;2022-09-20T15:29:43;4.37;;;1.53;;
8889;SDS011;4481;43.406;24.454;2022-09-20T15:32:09;1.70;;;1.40;;
8889;SDS011;4481;43.406;24.454;2022-09-20T15:34:35;1.93;;;1.10;;
8889;SDS011;4481;43.406;24.454;2022-09-20T15:37:01;1.53;;;1.13;;
8889;SDS011;4481;43.406;24.454;2022-09-20T15:39:28;2.37;;;1.10;;
8889;SDS011;4481;43.406;24.454;2022-09-20T15:41:54;1.13;;;1.03;;
8889;SDS011;4481;43.406;24.454;2022-09-20T15:44:21;1.20;;;1.10;;
8889;SDS011;4481;43.406;24.454;2022-09-20T15:46:49;5.33;;;1.20;;
8889;SDS011;4481;43.406;24.454;2022-09-20T15:49:15;2.63;;;1.00;;
8889;SDS011;4481;43.406;24.454;2022-09-20T15:51:41;1.40;;;1.30;;
8889;SDS011;4481;43.406;24.454;2022-09-20T15:54:08;1.30;;;1.20;;
8889;SDS011;4481;43.406;24.454;2022-09-20T15:56:38;1.33;;;1.20;;
8889;SDS011;4481;43.406;24.454;2022-09-20T15:59:05;1.90;;;1.50;;
8889;SDS011;4481;43.406;24.454;2022-09-20T16:01:33;1.47;;;1.37;;
8889;SDS011;4481;43.406;24.454;2022-09-20T16:04:03;2.23;;;1.80;;
8889;SDS011;4481;43.406;24.454;2022-09-20T16:06:30;2.40;;;1.63;;
8889;SDS011;4481;43.406;24.454;2022-09-20T16:08:57;1.73;;;1.63;;
8889;SDS011;4481;43.406;24.454;2022-09-20T16:11:23;3.63;;;1.50;;
8889;SDS011;4481;43.406;24.454;2022-09-20T16:13:52;1.93;;;1.50;;
8889;SDS011;4481;43.406;24.454;2022-09-20T16:16:20;1.97;;;1.60;;
8889;SDS011;4481;43.406;24.454;2022-09-20T16:18:47;2.30;;;2.10;;